sensor_id;sensor_type;location;lat;lon;timestamp;temperature;humidity
22416;DHT22;12204;50.600;4.608;2022-09-24T00:01:26;23.10;71.70
22416;DHT22;12204;50.600;4.608;2022-09-24T00:06:34;23.10;71.70
22416;DHT22;12204;50.600;4.608;2022-09-24T00:11:43;23.20;71.70
22416;DHT22;12204;50.600;4.608;2022-09-24T00:16:47;23.20;71.40
22416;DHT22;12204;50.600;4.608;2022-09-24T00:21:50;23.20;71.40
22416;DHT22;12204;50.600;4.608;2022-09-24T00:26:55;23.30;71.50
22416;DHT22;12204;50.600;4.608;2022-09-24T00:31:59;23.30;71.60
22416;DHT22;12204;50.600;4.608;2022-09-24T00:37:03;23.30;71.50
22416;DHT22;12204;50.600;4.608;2022-09-24T00:42:09;23.30;71.40
22416;DHT22;12204;50.600;4.608;2022-09-24T00:47:14;23.30;71.30
22416;DHT22;12204;50.600;4.608;2022-09-24T00:52:29;23.30;71.30
22416;DHT22;12204;50.600;4.608;2022-09-24T00:57:35;23.20;71.30
22416;DHT22;12204;50.600;4.608;2022-09-24T01:02:42;23.20;71.30
22416;DHT22;12204;50.600;4.608;2022-09-24T01:07:50;23.20;71.30
22416;DHT22;12204;50.600;4.608;2022-09-24T01:13:01;23.20;71.40
22416;DHT22;12204;50.600;4.608;2022-09-24T01:18:15;23.20;71.50
22416;DHT22;12204;50.600;4.608;2022-09-24T01:23:50;23.20;71.60
22416;DHT22;12204;50.600;4.608;2022-09-24T01:29:29;23.20;71.60
22416;DHT22;12204;50.600;4.608;2022-09-24T01:34:46;23.20;71.80
22416;DHT22;12204;50.600;4.608;2022-09-24T01:39:54;23.20;71.90
22416;DHT22;12204;50.600;4.608;2022-09-24T01:45:00;23.10;71.70
22416;DHT22;12204;50.600;4.608;2022-09-24T01:50:07;23.20;71.70
22416;DHT22;12204;50.600;4.608;2022-09-24T01:55:15;23.20;71.70
22416;DHT22;12204;50.600;4.608;2022-09-24T02:00:23;23.20;71.80
22416;DHT22;12204;50.600;4.608;2022-09-24T02:05:30;23.20;71.60
22416;DHT22;12204;50.600;4.608;2022-09-24T02:10:41;23.20;71.60
22416;DHT22;12204;50.600;4.608;2022-09-24T02:15:52;23.20;71.50
22416;DHT22;12204;50.600;4.608;2022-09-24T02:20:59;23.20;71.60
22416;DHT22;12204;50.600;4.608;2022-09-24T02:26:10;23.20;71.40
22416;DHT22;12204;50.600;4.608;2022-09-24T02:31:18;23.20;71.40
22416;DHT22;12204;50.600;4.608;2022-09-24T02:36:28;23.20;71.40
22416;DHT22;12204;50.600;4.608;2022-09-24T02:41:33;23.20;71.60
22416;DHT22;12204;50.600;4.608;2022-09-24T02:46:38;23.20;71.70
22416;DHT22;12204;50.600;4.608;2022-09-24T02:51:44;23.20;71.60
22416;DHT22;12204;50.600;4.608;2022-09-24T02:56:48;23.20;71.70
22416;DHT22;12204;50.600;4.608;2022-09-24T03:01:53;23.20;71.70
22416;DHT22;12204;50.600;4.608;2022-09-24T03:06:57;23.20;71.70
22416;DHT22;12204;50.600;4.608;2022-09-24T03:12:01;23.10;71.80
22416;DHT22;12204;50.600;4.608;2022-09-24T03:17:07;23.10;71.80
22416;DHT22;12204;50.600;4.608;2022-09-24T03:22:10;23.10;71.80
22416;DHT22;12204;50.600;4.608;2022-09-24T03:27:14;23.10;71.90
22416;DHT22;12204;50.600;4.608;2022-09-24T03:32:19;23.10;71.80
22416;DHT22;12204;50.600;4.608;2022-09-24T03:37:23;23.10;72.10
22416;DHT22;12204;50.600;4.608;2022-09-24T03:42:27;23.10;72.10
22416;DHT22;12204;50.600;4.608;2022-09-24T03:47:33;23.00;72.20
22416;DHT22;12204;50.600;4.608;2022-09-24T03:52:38;23.00;72.30
22416;DHT22;12204;50.600;4.608;2022-09-24T03:57:41;23.00;72.30
22416;DHT22;12204;50.600;4.608;2022-09-24T04:02:46;23.00;72.50
22416;DHT22;12204;50.600;4.608;2022-09-24T04:07:50;22.90;72.30
22416;DHT22;12204;50.600;4.608;2022-09-24T04:12:54;22.90;72.50
22416;DHT22;12204;50.600;4.608;2022-09-24T04:17:59;22.90;72.50
22416;DHT22;12204;50.600;4.608;2022-09-24T04:23:03;22.90;72.70
22416;DHT22;12204;50.600;4.608;2022-09-24T04:28:08;22.90;72.70
22416;DHT22;12204;50.600;4.608;2022-09-24T04:33:14;22.80;72.80
22416;DHT22;12204;50.600;4.608;2022-09-24T04:38:17;22.80;72.80
22416;DHT22;12204;50.600;4.608;2022-09-24T04:43:22;22.80;73.30
22416;DHT22;12204;50.600;4.608;2022-09-24T04:48:27;22.70;73.20
22416;DHT22;12204;50.600;4.608;2022-09-24T04:53:31;22.70;73.50
22416;DHT22;12204;50.600;4.608;2022-09-24T04:58:36;22.80;73.80
22416;DHT22;12204;50.600;4.608;2022-09-24T05:03:44;22.70;73.60
22416;DHT22;12204;50.600;4.608;2022-09-24T05:08:47;22.70;73.70
22416;DHT22;12204;50.600;4.608;2022-09-24T05:13:51;22.70;73.70
22416;DHT22;12204;50.600;4.608;2022-09-24T05:18:56;22.70;74.00
22416;DHT22;12204;50.600;4.608;2022-09-24T05:24:00;22.70;73.70
22416;DHT22;12204;50.600;4.608;2022-09-24T05:29:04;22.70;74.10
22416;DHT22;12204;50.600;4.608;2022-09-24T05:34:10;22.70;74.10
22416;DHT22;12204;50.600;4.608;2022-09-24T05:39:15;22.70;74.30
22416;DHT22;12204;50.600;4.608;2022-09-24T05:44:18;22.70;74.10
22416;DHT22;12204;50.600;4.608;2022-09-24T05:49:24;22.60;74.40
22416;DHT22;12204;50.600;4.608;2022-09-24T05:54:27;22.70;74.40
22416;DHT22;12204;50.600;4.608;2022-09-24T05:59:31;22.60;74.60
22416;DHT22;12204;50.600;4.608;2022-09-24T06:04:36;22.60;74.70
22416;DHT22;12204;50.600;4.608;2022-09-24T06:09:39;22.60;74.80
22416;DHT22;12204;50.600;4.608;2022-09-24T06:14:43;22.60;74.80
22416;DHT22;12204;50.600;4.608;2022-09-24T06:19:48;22.60;74.90
22416;DHT22;12204;50.600;4.608;2022-09-24T06:24:51;22.70;74.70
22416;DHT22;12204;50.600;4.608;2022-09-24T06:29:55;22.60;74.50
22416;DHT22;12204;50.600;4.608;2022-09-24T06:35:00;22.60;74.50
22416;DHT22;12204;50.600;4.608;2022-09-24T06:40:04;22.60;75.00
22416;DHT22;12204;50.600;4.608;2022-09-24T06:45:11;22.60;74.80
22416;DHT22;12204;50.600;4.608;2022-09-24T06:50:16;22.60;75.00
22416;DHT22;12204;50.600;4.608;2022-09-24T06:55:20;22.60;74.80
22416;DHT22;12204;50.600;4.608;2022-09-24T07:00:24;22.60;74.80
22416;DHT22;12204;50.600;4.608;2022-09-24T07:05:29;22.50;74.60
22416;DHT22;12204;50.600;4.608;2022-09-24T07:10:33;22.50;74.60
22416;DHT22;12204;50.600;4.608;2022-09-24T07:15:36;22.50;74.70
22416;DHT22;12204;50.600;4.608;2022-09-24T07:20:42;22.60;74.70
22416;DHT22;12204;50.600;4.608;2022-09-24T07:25:45;22.50;74.50
22416;DHT22;12204;50.600;4.608;2022-09-24T07:30:55;22.50;73.50
22416;DHT22;12204;50.600;4.608;2022-09-24T07:36:04;22.40;73.20
22416;DHT22;12204;50.600;4.608;2022-09-24T07:41:09;22.40;72.80
22416;DHT22;12204;50.600;4.608;2022-09-24T07:46:13;22.40;72.40
22416;DHT22;12204;50.600;4.608;2022-09-24T07:51:18;22.30;72.00
22416;DHT22;12204;50.600;4.608;2022-09-24T07:56:22;22.30;71.80
22416;DHT22;12204;50.600;4.608;2022-09-24T08:01:26;22.30;71.50
22416;DHT22;12204;50.600;4.608;2022-09-24T08:06:33;22.20;71.20
22416;DHT22;12204;50.600;4.608;2022-09-24T08:11:40;22.20;71.10
22416;DHT22;12204;50.600;4.608;2022-09-24T08:16:44;22.20;71.10
22416;DHT22;12204;50.600;4.608;2022-09-24T08:21:49;22.10;70.90
22416;DHT22;12204;50.600;4.608;2022-09-24T08:26:53;22.20;71.60
22416;DHT22;12204;50.600;4.608;2022-09-24T08:31:56;22.10;70.50
22416;DHT22;12204;50.600;4.608;2022-09-24T08:37:01;22.10;71.00
22416;DHT22;12204;50.600;4.608;2022-09-24T08:42:10;22.10;71.10
22416;DHT22;12204;50.600;4.608;2022-09-24T08:47:27;22.10;71.10
22416;DHT22;12204;50.600;4.608;2022-09-24T08:52:52;22.10;71.90
22416;DHT22;12204;50.600;4.608;2022-09-24T08:58:30;22.10;71.70
22416;DHT22;12204;50.600;4.608;2022-09-24T09:03:49;22.10;71.90
22416;DHT22;12204;50.600;4.608;2022-09-24T09:09:02;22.10;72.10
22416;DHT22;12204;50.600;4.608;2022-09-24T09:14:13;22.10;72.10
22416;DHT22;12204;50.600;4.608;2022-09-24T09:19:23;22.10;72.20
22416;DHT22;12204;50.600;4.608;2022-09-24T09:24:37;22.20;71.90
22416;DHT22;12204;50.600;4.608;2022-09-24T09:29:49;22.10;71.70
22416;DHT22;12204;50.600;4.608;2022-09-24T09:35:09;22.10;71.70
22416;DHT22;12204;50.600;4.608;2022-09-24T09:40:28;22.10;71.80
22416;DHT22;12204;50.600;4.608;2022-09-24T09:45:40;22.10;71.90
22416;DHT22;12204;50.600;4.608;2022-09-24T09:50:50;22.10;71.80
22416;DHT22;12204;50.600;4.608;2022-09-24T09:56:00;22.10;72.40
22416;DHT22;12204;50.600;4.608;2022-09-24T10:01:09;22.10;72.50
22416;DHT22;12204;50.600;4.608;2022-09-24T10:06:23;22.10;72.60
22416;DHT22;12204;50.600;4.608;2022-09-24T10:11:29;22.10;73.00
22416;DHT22;12204;50.600;4.608;2022-09-24T10:16:36;22.10;72.70
22416;DHT22;12204;50.600;4.608;2022-09-24T10:21:41;22.10;73.00
22416;DHT22;12204;50.600;4.608;2022-09-24T10:26:47;22.10;73.20
22416;DHT22;12204;50.600;4.608;2022-09-24T10:31:52;22.10;73.00
22416;DHT22;12204;50.600;4.608;2022-09-24T10:36:59;22.10;73.00
22416;DHT22;12204;50.600;4.608;2022-09-24T10:42:25;22.00;72.50
22416;DHT22;12204;50.600;4.608;2022-09-24T10:47:35;22.10;72.60
22416;DHT22;12204;50.600;4.608;2022-09-24T10:52:46;22.10;72.60
22416;DHT22;12204;50.600;4.608;2022-09-24T10:58:01;22.10;72.60
22416;DHT22;12204;50.600;4.608;2022-09-24T11:03:34;22.00;72.60
22416;DHT22;12204;50.600;4.608;2022-09-24T11:09:17;22.00;72.60
22416;DHT22;12204;50.600;4.608;2022-09-24T11:14:52;22.00;72.70
22416;DHT22;12204;50.600;4.608;2022-09-24T11:20:24;22.00;72.70
22416;DHT22;12204;50.600;4.608;2022-09-24T11:25:38;22.00;72.90
22416;DHT22;12204;50.600;4.608;2022-09-24T11:30:57;22.00;72.90
22416;DHT22;12204;50.600;4.608;2022-09-24T11:36:19;22.10;73.00
22416;DHT22;12204;50.600;4.608;2022-09-24T11:41:43;22.00;72.90
22416;DHT22;12204;50.600;4.608;2022-09-24T11:47:02;22.00;73.00
22416;DHT22;12204;50.600;4.608;2022-09-24T11:52:25;22.00;73.10
22416;DHT22;12204;50.600;4.608;2022-09-24T11:57:36;22.00;73.10
22416;DHT22;12204;50.600;4.608;2022-09-24T12:02:47;22.00;73.90
22416;DHT22;12204;50.600;4.608;2022-09-24T12:07:55;22.00;73.30
22416;DHT22;12204;50.600;4.608;2022-09-24T12:13:09;22.00;73.30
22416;DHT22;12204;50.600;4.608;2022-09-24T12:18:23;22.00;74.10
22416;DHT22;12204;50.600;4.608;2022-09-24T12:23:32;22.00;73.40
22416;DHT22;12204;50.600;4.608;2022-09-24T12:28:47;22.00;73.40
22416;DHT22;12204;50.600;4.608;2022-09-24T12:34:21;21.90;73.30
22416;DHT22;12204;50.600;4.608;2022-09-24T12:39:34;22.00;73.40
22416;DHT22;12204;50.600;4.608;2022-09-24T12:44:43;22.00;73.40
22416;DHT22;12204;50.600;4.608;2022-09-24T12:49:55;21.90;73.40
22416;DHT22;12204;50.600;4.608;2022-09-24T12:55:02;21.90;73.40
22416;DHT22;12204;50.600;4.608;2022-09-24T13:00:38;21.90;73.30
22416;DHT22;12204;50.600;4.608;2022-09-24T13:05:47;21.90;73.40
22416;DHT22;12204;50.600;4.608;2022-09-24T13:10:54;21.90;73.40
22416;DHT22;12204;50.600;4.608;2022-09-24T13:16:02;21.90;73.40
22416;DHT22;12204;50.600;4.608;2022-09-24T13:21:18;21.90;73.40
22416;DHT22;12204;50.600;4.608;2022-09-24T13:26:30;21.90;73.40
22416;DHT22;12204;50.600;4.608;2022-09-24T13:31:41;21.90;73.40
22416;DHT22;12204;50.600;4.608;2022-09-24T13:36:56;21.90;73.40
22416;DHT22;12204;50.600;4.608;2022-09-24T13:42:06;21.90;73.40
22416;DHT22;12204;50.600;4.608;2022-09-24T13:47:28;21.90;73.40
22416;DHT22;12204;50.600;4.608;2022-09-24T13:52:41;21.90;73.40
22416;DHT22;12204;50.600;4.608;2022-09-24T13:57:48;21.90;73.40
22416;DHT22;12204;50.600;4.608;2022-09-24T14:02:55;21.90;73.40
22416;DHT22;12204;50.600;4.608;2022-09-24T14:08:06;21.80;73.40
22416;DHT22;12204;50.600;4.608;2022-09-24T14:13:16;21.90;73.50
22416;DHT22;12204;50.600;4.608;2022-09-24T14:18:23;21.80;73.40
22416;DHT22;12204;50.600;4.608;2022-09-24T14:23:34;21.80;73.40
22416;DHT22;12204;50.600;4.608;2022-09-24T14:28:40;21.80;73.40
22416;DHT22;12204;50.600;4.608;2022-09-24T14:33:44;21.80;74.20
22416;DHT22;12204;50.600;4.608;2022-09-24T14:38:55;21.80;73.40
22416;DHT22;12204;50.600;4.608;2022-09-24T14:44:05;21.80;73.80
22416;DHT22;12204;50.600;4.608;2022-09-24T14:49:18;21.80;75.30
22416;DHT22;12204;50.600;4.608;2022-09-24T14:54:30;21.90;76.10
22416;DHT22;12204;50.600;4.608;2022-09-24T14:59:36;21.90;76.20
22416;DHT22;12204;50.600;4.608;2022-09-24T15:04:45;21.90;77.00
22416;DHT22;12204;50.600;4.608;2022-09-24T15:09:53;21.90;77.10
22416;DHT22;12204;50.600;4.608;2022-09-24T15:15:00;21.90;76.60
22416;DHT22;12204;50.600;4.608;2022-09-24T15:20:09;21.90;76.70
22416;DHT22;12204;50.600;4.608;2022-09-24T15:25:15;21.90;77.10
22416;DHT22;12204;50.600;4.608;2022-09-24T15:30:20;21.90;77.10
22416;DHT22;12204;50.600;4.608;2022-09-24T15:35:24;21.90;77.20
22416;DHT22;12204;50.600;4.608;2022-09-24T15:40:30;21.90;77.50
22416;DHT22;12204;50.600;4.608;2022-09-24T15:45:37;21.90;77.80
22416;DHT22;12204;50.600;4.608;2022-09-24T15:50:43;21.90;77.30
22416;DHT22;12204;50.600;4.608;2022-09-24T15:55:52;21.80;76.80
22416;DHT22;12204;50.600;4.608;2022-09-24T16:00:57;21.80;76.40
22416;DHT22;12204;50.600;4.608;2022-09-24T16:06:00;21.80;76.00
22416;DHT22;12204;50.600;4.608;2022-09-24T16:11:06;21.80;76.30
22416;DHT22;12204;50.600;4.608;2022-09-24T16:16:10;21.80;77.10
22416;DHT22;12204;50.600;4.608;2022-09-24T16:21:14;21.80;77.20
22416;DHT22;12204;50.600;4.608;2022-09-24T16:26:19;21.80;77.70
22416;DHT22;12204;50.600;4.608;2022-09-24T16:31:23;21.80;80.20
22416;DHT22;12204;50.600;4.608;2022-09-24T16:36:27;21.80;80.40
22416;DHT22;12204;50.600;4.608;2022-09-24T16:41:32;21.80;80.80
22416;DHT22;12204;50.600;4.608;2022-09-24T16:46:37;21.80;81.00
22416;DHT22;12204;50.600;4.608;2022-09-24T16:51:41;21.80;81.10
22416;DHT22;12204;50.600;4.608;2022-09-24T16:56:48;21.80;81.20
22416;DHT22;12204;50.600;4.608;2022-09-24T17:01:53;21.80;81.40
22416;DHT22;12204;50.600;4.608;2022-09-24T17:06:57;21.80;81.40
22416;DHT22;12204;50.600;4.608;2022-09-24T17:12:02;21.80;81.40
22416;DHT22;12204;50.600;4.608;2022-09-24T17:17:06;21.80;81.40
22416;DHT22;12204;50.600;4.608;2022-09-24T17:22:10;21.80;81.50
22416;DHT22;12204;50.600;4.608;2022-09-24T17:27:16;21.80;81.40
22416;DHT22;12204;50.600;4.608;2022-09-24T17:32:19;21.80;81.40
22416;DHT22;12204;50.600;4.608;2022-09-24T17:37:23;21.80;81.40
22416;DHT22;12204;50.600;4.608;2022-09-24T17:42:29;21.80;81.60
22416;DHT22;12204;50.600;4.608;2022-09-24T17:47:34;21.90;81.60
22416;DHT22;12204;50.600;4.608;2022-09-24T17:52:51;21.80;81.10
22416;DHT22;12204;50.600;4.608;2022-09-24T17:57:56;21.80;81.30
22416;DHT22;12204;50.600;4.608;2022-09-24T18:03:00;21.90;81.30
22416;DHT22;12204;50.600;4.608;2022-09-24T18:08:05;21.80;81.00
22416;DHT22;12204;50.600;4.608;2022-09-24T18:13:10;21.80;81.40
22416;DHT22;12204;50.600;4.608;2022-09-24T18:18:15;21.90;80.90
22416;DHT22;12204;50.600;4.608;2022-09-24T18:23:20;22.00;81.10
22416;DHT22;12204;50.600;4.608;2022-09-24T18:28:25;22.30;79.80
22416;DHT22;12204;50.600;4.608;2022-09-24T18:33:29;22.50;78.80
22416;DHT22;12204;50.600;4.608;2022-09-24T18:38:33;22.70;78.10
22416;DHT22;12204;50.600;4.608;2022-09-24T18:43:39;22.80;77.40
22416;DHT22;12204;50.600;4.608;2022-09-24T18:48:46;22.90;77.00
22416;DHT22;12204;50.600;4.608;2022-09-24T18:53:53;23.00;76.70
22416;DHT22;12204;50.600;4.608;2022-09-24T18:59:02;23.00;76.50
22416;DHT22;12204;50.600;4.608;2022-09-24T19:04:12;23.10;76.20
22416;DHT22;12204;50.600;4.608;2022-09-24T19:09:18;23.10;75.90
22416;DHT22;12204;50.600;4.608;2022-09-24T19:14:24;23.20;75.80
22416;DHT22;12204;50.600;4.608;2022-09-24T19:19:28;23.20;75.70
22416;DHT22;12204;50.600;4.608;2022-09-24T19:24:31;23.30;75.70
22416;DHT22;12204;50.600;4.608;2022-09-24T19:29:36;23.20;75.40
22416;DHT22;12204;50.600;4.608;2022-09-24T19:34:44;23.20;75.60
22416;DHT22;12204;50.600;4.608;2022-09-24T19:39:48;23.20;75.70
22416;DHT22;12204;50.600;4.608;2022-09-24T19:44:53;23.20;75.80
22416;DHT22;12204;50.600;4.608;2022-09-24T19:49:58;23.20;76.10
22416;DHT22;12204;50.600;4.608;2022-09-24T19:55:02;23.10;76.40
22416;DHT22;12204;50.600;4.608;2022-09-24T20:00:08;23.10;76.50
22416;DHT22;12204;50.600;4.608;2022-09-24T20:05:13;23.10;76.80
22416;DHT22;12204;50.600;4.608;2022-09-24T20:10:17;23.20;76.30
22416;DHT22;12204;50.600;4.608;2022-09-24T20:15:23;23.30;75.90
22416;DHT22;12204;50.600;4.608;2022-09-24T20:20:26;23.40;75.40
22416;DHT22;12204;50.600;4.608;2022-09-24T20:25:30;23.40;74.80
22416;DHT22;12204;50.600;4.608;2022-09-24T20:30:52;23.50;74.60
22416;DHT22;12204;50.600;4.608;2022-09-24T20:35:59;23.50;74.40
22416;DHT22;12204;50.600;4.608;2022-09-24T20:41:05;23.50;74.30
22416;DHT22;12204;50.600;4.608;2022-09-24T20:46:14;23.40;74.20
22416;DHT22;12204;50.600;4.608;2022-09-24T20:51:20;23.40;74.40
22416;DHT22;12204;50.600;4.608;2022-09-24T20:56:24;23.40;74.50
22416;DHT22;12204;50.600;4.608;2022-09-24T21:01:32;23.40;74.60
22416;DHT22;12204;50.600;4.608;2022-09-24T21:06:36;23.40;74.70
22416;DHT22;12204;50.600;4.608;2022-09-24T21:11:40;23.30;74.90
22416;DHT22;12204;50.600;4.608;2022-09-24T21:16:46;23.30;75.10
22416;DHT22;12204;50.600;4.608;2022-09-24T21:21:50;23.40;75.60
22416;DHT22;12204;50.600;4.608;2022-09-24T21:26:55;23.40;75.80
22416;DHT22;12204;50.600;4.608;2022-09-24T21:32:02;23.40;76.20
22416;DHT22;12204;50.600;4.608;2022-09-24T21:37:06;23.30;76.40
22416;DHT22;12204;50.600;4.608;2022-09-24T21:42:10;23.30;76.70
22416;DHT22;12204;50.600;4.608;2022-09-24T21:47:16;23.30;77.00
22416;DHT22;12204;50.600;4.608;2022-09-24T21:52:20;23.30;77.30
22416;DHT22;12204;50.600;4.608;2022-09-24T21:57:24;23.20;77.60
22416;DHT22;12204;50.600;4.608;2022-09-24T22:02:29;23.20;77.70
22416;DHT22;12204;50.600;4.608;2022-09-24T22:07:33;23.20;77.90
22416;DHT22;12204;50.600;4.608;2022-09-24T22:12:37;23.20;78.10
22416;DHT22;12204;50.600;4.608;2022-09-24T22:17:42;23.10;78.20
22416;DHT22;12204;50.600;4.608;2022-09-24T22:22:45;23.10;78.40
22416;DHT22;12204;50.600;4.608;2022-09-24T22:27:49;23.10;78.40
22416;DHT22;12204;50.600;4.608;2022-09-24T22:32:54;23.10;78.50
22416;DHT22;12204;50.600;4.608;2022-09-24T22:37:58;23.10;78.60
22416;DHT22;12204;50.600;4.608;2022-09-24T22:43:02;23.10;78.80
22416;DHT22;12204;50.600;4.608;2022-09-24T22:48:07;23.10;78.80
22416;DHT22;12204;50.600;4.608;2022-09-24T22:53:10;23.00;78.80
22416;DHT22;12204;50.600;4.608;2022-09-24T22:58:14;23.00;78.90
22416;DHT22;12204;50.600;4.608;2022-09-24T23:03:19;23.00;79.00
22416;DHT22;12204;50.600;4.608;2022-09-24T23:08:23;23.00;79.20
22416;DHT22;12204;50.600;4.608;2022-09-24T23:13:26;23.00;79.30
22416;DHT22;12204;50.600;4.608;2022-09-24T23:18:31;23.00;79.40
22416;DHT22;12204;50.600;4.608;2022-09-24T23:23:35;23.00;79.30
22416;DHT22;12204;50.600;4.608;2022-09-24T23:28:39;23.00;79.40
22416;DHT22;12204;50.600;4.608;2022-09-24T23:33:45;23.00;79.50
22416;DHT22;12204;50.600;4.608;2022-09-24T23:38:48;23.00;79.50
22416;DHT22;12204;50.600;4.608;2022-09-24T23:43:53;23.00;79.50
22416;DHT22;12204;50.600;4.608;2022-09-24T23:48:58;23.00;79.60
22416;DHT22;12204;50.600;4.608;2022-09-24T23:54:02;22.90;79.60
22416;DHT22;12204;50.600;4.608;2022-09-24T23:59:06;22.90;79.70
